San Clemente Ridge Station Data

Red Flag Warning: No
Fire Weather Zone: 242
SDGE Region: Orange County
Lat/Lon: 33.436/-117.59

Observations

Time Wind Speed/Gust Temp(F) RH Fuel Moist Fuel Temp(F) Dewpt(F) Tmax(F) Tmin(F) Accum Precip 10-min Precip SL Press(mb)
4/26 2:40am 63 3 G 5 58° 67% - - 47° 58.7° 54.5° - - 1013.0
4/26 2:30am 54 4 G 6 57° 67% - - 46° 58.2° 54.5° - - 1013.0
4/26 2:20am 86 3 G 4 57° 68% - - 47° 58.2° 54.5° - - 1013.0
4/26 2:10am 64 5 G 6 57° 70% - - 47° 58.2° 54.5° - - 1013.0
4/26 2:00am 60 5 G 7 56° 72% - - 48° 58.2° 54.5° - - 1013.0
4/26 1:50am 61 5 G 6 57° 73% - - 48° 58.2° 54.5° - - 1013.0
4/26 1:40am 56 6 G 7 56° 74% - - 48° 58.2° 54.5° - - 1013.0
4/26 1:30am 52 6 G 8 56° 72% - - 47° 58.2° 54.5° - - 1013.0
4/26 1:20am 58 5 G 7 56° 73% - - 47° 58.2° 54.5° - - 1013.0
4/26 1:10am 75 5 G 8 56° 74% - - 48° 58.2° 55.6° - - 1013.0
4/26 1:00am 61 5 G 6 56° 76% - - 49° 58.2° 55.8° - - 1014.0
4/26 12:50am 62 4 G 5 57° 75% - - 49° 58.2° 56° - - 1014.0
4/26 12:40am 83 2 G 3 57° 76% - - 50° 58.2° 56.4° - - 1014.0
4/26 12:30am 102 2 G 3 57° 74% - - 49° 58.1° 56.4° - - 1014.0
4/26 12:20am 100 2 G 3 57° 76% - - 49° 57.7° 56.4° - - 1014.0
4/26 12:10am 97 2 G 3 57° 77% - - 50° 57.6° 56.4° - - 1014.0
4/26 12:00am 134 2 G 3 57° 77% - - 50° 65.3° 55.2° - - 1014.0
4/25 11:50pm 116 2 G 3 57° 76% - - 50° 65.3° 55.2° - - 1014.0
4/25 11:40pm 113 2 G 4 57° 77% - - 50° 65.3° 55.2° - - 1014.0
4/25 11:30pm 130 1 G 2 57° 78% - - 50° 65.3° 55.2° - - 1014.0
4/25 11:20pm 116 2 G 4 57° 78% - - 50° 65.3° 55.2° - - 1014.0
4/25 11:10pm 112 4 G 5 56° 79% - - 50° 65.3° 55.2° - - 1014.0
4/25 11:00pm 116 4 G 6 56° 79% - - 50° 65.3° 55.2° - - 1014.0
4/25 10:50pm 104 5 G 7 56° 79% - - 50° 65.3° 55.2° - - 1014.0
4/25 10:40pm 95 4 G 5 56° 80% - - 50° 65.3° 55.2° - - 1014.0
4/25 10:30pm 104 4 G 5 56° 79% - - 50° 65.3° 55.5° - - 1014.0
4/25 10:20pm 131 2 G 3 57° 78% - - 50° 65.3° 55.5° - - 1014.0
4/25 10:10pm 205 2 G 3 57° 77% - - 50° 65.3° 55.5° - - 1014.0
4/25 10:00pm 222 2 G 2 57° 76% - - 50° 65.3° 55.5° - - 1014.0
4/25 9:50pm 261 2 G 4 57° 76% - - 50° 65.3° 55.5° - - 1014.0
4/25 9:40pm 183 1 G 3 57° 79% - - 50° 65.3° 55.5° - - 1014.0
4/25 9:30pm 132 2 G 4 57° 78% - - 50° 65.3° 55.5° - - 1014.0
4/25 9:20pm 213 3 G 4 57° 76% - - 50° 65.3° 55.5° - - 1014.0
4/25 9:10pm 228 2 G 4 57° 76% - - 50° 65.3° 55.5° - - 1014.0
4/25 9:00pm 239 3 G 4 57° 76% - - 50° 65.3° 55.5° - - 1014.0
4/25 8:50pm 254 3 G 6 57° 76% - - 50° 65.3° 55.5° - - 1014.0
4/25 8:40pm 265 5 G 8 57° 76% - - 50° 65.3° 55.5° - - 1014.0
4/25 8:30pm 265 5 G 7 57° 76% - - 50° 65.3° 55.5° - - 1014.0
4/25 8:20pm 237 3 G 6 57° 76% - - 50° 65.3° 55.5° - - 1014.0
4/25 8:10pm 244 4 G 7 57° 76% - - 50° 65.3° 55.5° - - 1013.0
4/25 8:00pm 244 3 G 6 57° 77% - - 50° 65.3° 55.5° - - 1013.0
4/25 7:50pm 281 4 G 7 58° 76% - - 50° 65.3° 55.5° - - 1013.0
4/25 7:40pm 293 6 G 10 58° 76% - - 50° 65.3° 55.5° - - 1013.0
4/25 7:30pm 292 9 G 11 58° 75% - - 50° 65.3° 55.5° - - 1012.0
4/25 7:20pm 288 8 G 11 58° 73% - - 50° 65.3° 55.5° - - 1012.0
4/25 7:10pm 288 9 G 15 58° 72% - - 49° 65.3° 55.5° - - 1012.0
4/25 7:00pm 275 10 G 14 59° 71% - - 49° 65.3° 55.5° - - 1012.0
4/25 6:50pm 273 8 G 14 59° 70% - - 49° 65.3° 55.5° - - 1012.0
4/25 6:40pm 279 8 G 13 60° 68% - - 49° 65.3° 55.5° - - 1012.0
4/25 6:30pm 281 8 G 11 60° 65% - - 49° 65.3° 55.5° - - 1012.0
4/25 6:20pm 281 7 G 11 61° 65% - - 49° 65.3° 55.5° - - 1012.0
4/25 6:10pm 285 9 G 15 61° 63% - - 48° 65.3° 55.5° - - 1012.0
4/25 6:00pm 283 11 G 14 61° 65% - - 49° 65.3° 55.5° - - 1012.0
4/25 5:50pm 280 10 G 13 61° 64% - - 49° 65.3° 55.5° - - 1012.0
4/25 5:40pm 280 9 G 13 61° 63% - - 49° 65.3° 55.5° - - 1012.0
4/25 5:30pm 272 9 G 13 62° 63% - - 49° 65.3° 55.5° - - 1012.0
4/25 5:20pm 275 8 G 13 62° 60% - - 48° 65.3° 55.5° - - 1012.0
4/25 5:10pm 273 9 G 13 63° 58% - - 48° 65.3° 55.5° - - 1012.0
4/25 5:00pm 281 9 G 16 64° 51% - - 46° 65.3° 55.5° - - 1012.0
4/25 4:50pm 283 12 G 17 64° 52% - - 46° 65.3° 55.5° - - 1012.0
4/25 4:40pm 283 11 G 17 64° 51% - - 46° 65.3° 55.5° - - 1012.0
4/25 4:30pm 279 12 G 18 64° 50% - - 45° 65.3° 55.5° - - 1012.0
4/25 4:20pm 277 11 G 16 64° 47% - - 44° 65.3° 55.5° - - 1012.0
4/25 4:10pm 289 13 G 18 64° 46% - - 43° 65.3° 55.5° - - 1012.0
4/25 4:00pm 277 13 G 19 64° 49% - - 44° 65.3° 55.5° - - 1012.0
4/25 3:50pm 280 12 G 18 64° 51% - - 46° 65.3° 55.5° - - 1012.0
4/25 3:40pm 285 13 G 19 64° 53% - - 46° 64.8° 55.5° - - 1013.0
4/25 3:30pm 273 13 G 18 63° 59% - - 48° 64.1° 55.5° - - 1013.0
4/25 3:20pm 277 13 G 19 62° 62% - - 49° 64.1° 55.5° - - 1013.0
4/25 3:10pm 274 13 G 19 62° 67% - - 51° 64.1° 55.5° - - 1013.0
4/25 3:00pm 287 13 G 19 61° 68% - - 50° 64.1° 55.5° - - 1013.0
4/25 2:50pm 283 14 G 21 60° 71% - - 51° 64.1° 55.5° - - 1013.0
4/25 2:40pm 281 13 G 20 60° 69% - - 50° 64.1° 55.5° - - 1013.0
4/25 2:30pm 275 12 G 17 61° 68% - - 50° 64.1° 55.5° - - 1013.0
4/25 2:20pm 272 10 G 17 61° 70% - - 51° 64.1° 55.5° - - 1013.0
4/25 2:10pm 268 10 G 16 61° 68% - - 51° 64.1° 55.5° - - 1013.0
4/25 2:00pm 266 10 G 14 61° 69% - - 51° 64.1° 55.5° - - 1014.0
4/25 1:50pm 272 9 G 14 62° 65% - - 50° 64.1° 55.5° - - 1014.0
4/25 1:40pm 269 8 G 14 62° 64% - - 50° 64.1° 55.5° - - 1014.0
4/25 1:30pm 247 8 G 12 62° 62% - - 49° 64.1° 55.5° - - 1014.0
4/25 1:20pm 245 8 G 13 62° 60% - - 48° 64.1° 55.5° - - 1014.0
4/25 1:10pm 243 7 G 11 62° 64% - - 50° 64.1° 55.5° - - 1014.0
4/25 1:00pm 249 6 G 11 62° 66% - - 51° 64.1° 55.5° - - 1014.0
4/25 12:50pm 264 7 G 14 62° 68% - - 51° 64.1° 55.5° - - 1014.0
4/25 12:40pm 252 6 G 13 61° 73% - - 53° 64.1° 55.5° - - 1014.0
4/25 12:30pm 250 6 G 10 61° 72% - - 52° 64.1° 55.5° - - 1015.0
4/25 12:20pm 219 6 G 10 62° 69% - - 52° 64.1° 55.5° - - 1014.0
4/25 12:10pm 225 6 G 10 62° 70% - - 52° 64.1° 55.5° - - 1014.0
4/25 12:00pm 211 6 G 10 62° 68% - - 52° 64.1° 55.5° - - 1014.0
4/25 11:50am 200 7 G 12 63° 68% - - 52° 64.1° 55.5° - - 1014.0
4/25 11:40am 187 6 G 12 62° 67% - - 51° 63.5° 55.5° - - 1014.0
4/25 11:30am 198 7 G 14 62° 68% - - 51° 63.5° 55.5° - - 1014.0
4/25 11:20am 191 8 G 14 62° 69% - - 52° 63.5° 55.5° - - 1014.0
4/25 11:10am 200 6 G 11 63° 69% - - 52° 63.5° 55.5° - - 1014.0
4/25 11:00am 206 6 G 12 61° 73% - - 53° 62.8° 55.5° - - 1014.0
4/25 10:50am 205 7 G 12 61° 73% - - 52° 62.2° 55.5° - - 1014.0
4/25 10:40am 192 8 G 12 61° 73% - - 52° 62.1° 55.5° - - 1014.0
4/25 10:30am 181 9 G 15 60° 75% - - 53° 61.8° 55.5° - - 1014.0
4/25 10:20am 184 8 G 17 61° 73% - - 52° 61.8° 55.5° - - 1014.0
4/25 10:10am 181 8 G 15 60° 72% - - 51° 61.8° 55.5° - - 1014.0
4/25 10:00am 184 8 G 13 60° 75% - - 52° 61.8° 55.5° - - 1014.0
4/25 9:50am 165 8 G 13 60° 75% - - 52° 61.8° 55.5° - - 1014.0
4/25 9:40am 150 7 G 11 60° 74% - - 52° 61.8° 55.5° - - 1013.0
4/25 9:30am 184 6 G 12 60° 77% - - 53° 61.2° 55.5° - - 1013.0
4/25 9:20am 196 5 G 11 60° 77% - - 53° 61.2° 55.5° - - 1013.0
4/25 9:10am 198 5 G 10 60° 77% - - 53° 61.1° 55.5° - - 1013.0
4/25 9:00am 202 6 G 10 60° 79% - - 53° 61.1° 55.5° - - 1013.0
4/25 8:50am 199 6 G 11 60° 80% - - 53° 61.1° 55.5° - - 1013.0
4/25 8:40am 195 6 G 10 60° 82% - - 54° 61.1° 55.5° - - 1013.0
4/25 8:30am 181 9 G 16 59° 84% - - 54° 59.7° 55.5° - - 1013.0
4/25 8:20am 177 8 G 16 59° 82% - - 54° 59.7° 55.5° - - 1013.0
4/25 8:10am 188 8 G 13 59° 82% - - 53° 59.3° 55.5° - - 1013.0
4/25 8:00am 197 7 G 12 58° 83% - - 53° 59.3° 55.5° - - 1013.0
4/25 7:50am 194 6 G 12 58° 84% - - 53° 58.7° 55.5° - - 1013.0
4/25 7:40am 201 6 G 11 58° 87% - - 54° 58.1° 55.5° - - 1013.0
4/25 7:30am 201 4 G 9 57° 88% - - 54° 58° 55.5° - - 1013.0
4/25 7:20am 196 4 G 8 57° 89% - - 54° 57.5° 55.5° - - 1013.0
4/25 7:10am 218 5 G 7 56° 90% - - 53° 57.3° 55.5° - - 1013.0
4/25 7:00am 206 4 G 8 56° 90% - - 53° 57.3° 55.5° - - 1012.0
4/25 6:50am 202 3 G 6 56° 90% - - 53° 57.3° 55.5° - - 1012.0
4/25 6:40am 218 4 G 8 56° 90% - - 53° 57.3° 55.5° - - 1012.0
4/25 6:30am 205 4 G 8 56° 91% - - 53° 57.3° 55.5° - - 1012.0
4/25 6:20am 218 3 G 7 56° 91% - - 53° 57.3° 55.5° - - 1012.0
4/25 6:10am 234 4 G 7 56° 91% - - 53° 57.3° 55.5° - - 1012.0
4/25 6:00am 241 5 G 8 56° 91% - - 53° 57.3° 55.5° - - 1012.0
4/25 5:50am 251 6 G 10 56° 91% - - 54° 57.3° 55.5° - - 1012.0
4/25 5:40am 257 6 G 9 56° 91% - - 54° 57.3° 55.5° - - 1012.0
4/25 5:30am 250 5 G 8 56° 90% - - 53° 57.3° 55.5° - - 1012.0
4/25 5:20am 234 3 G 5 56° 89% - - 53° 57.3° 55.5° - - 1012.0
4/25 5:10am 225 4 G 6 56° 89% - - 53° 57.3° 55.5° - - 1012.0
4/25 5:00am 233 2 G 4 56° 90% - - 53° 57.3° 55.6° - - 1012.0
4/25 4:50am 233 4 G 6 56° 90% - - 53° 57.3° 55.7° - - 1012.0
4/25 4:40am 245 4 G 7 56° 90% - - 54° 57.3° 55.7° - - 1012.0
4/25 4:30am 255 3 G 7 56° 91% - - 54° 57.3° 55.7° - - 1012.0
4/25 4:20am 246 3 G 6 56° 91% - - 54° 57.3° 55.7° - - 1012.0
4/25 4:10am 243 4 G 6 56° 91% - - 54° 57.3° 55.7° - - 1012.0
4/25 4:00am 232 5 G 7 57° 90% - - 54° 57.3° 55.7° - - 1012.0
4/25 3:50am 229 3 G 6 56° 89% - - 53° 57.3° 55.7° - - 1012.0
4/25 3:40am 172 4 G 6 56° 89% - - 53° 57.3° 55.7° - - 1011.0
4/25 3:30am 179 4 G 7 56° 89% - - 53° 57.3° 55.7° - - 1011.0
4/25 3:20am 179 4 G 7 56° 88% - - 53° 57.3° 55.8° - - 1012.0
4/25 3:10am 166 5 G 8 57° 88% - - 53° 57.3° 55.8° - - 1012.0
4/25 3:00am 183 3 G 7 57° 88% - - 53° 57.3° 55.8° - - 1012.0
4/25 2:50am 179 4 G 7 56° 88% - - 53° 57.3° 55.8° - - 1012.0
4/25 2:40am 173 4 G 7 56° 88% - - 53° 57.3° 55.8° - - 1012.0
4/25 2:30am 165 4 G 7 56° 88% - - 53° 57.3° 55.9° - - 1012.0
4/25 2:20am 174 4 G 6 57° 88% - - 53° 57.3° 56.1° - - 1013.0
4/25 2:10am 177 4 G 7 57° 87% - - 53° 57.3° 56.1° - - 1013.0
4/25 2:00am 177 3 G 7 56° 88% - - 53° 57.3° 56.1° - - 1013.0
4/25 1:50am 162 4 G 6 57° 88% - - 53° 57.3° 56.1° - - 1013.0
4/25 1:40am 161 5 G 6 57° 87% - - 53° 57.3° 56.2° - - 1012.0
4/25 1:30am 154 5 G 8 57° 87% - - 53° 57.3° 56.2° - - 1013.0
4/25 1:20am 152 4 G 6 57° 87% - - 53° 57.3° 56.2° - - 1013.0
4/25 1:10am 129 3 G 4 57° 87% - - 53° 57.3° 56.2° - - 1013.0
4/25 1:00am 152 4 G 7 57° 87% - - 53° 57.3° 56.2° - - 1012.0
4/25 12:50am 156 4 G 7 57° 87% - - 53° 57.3° 56.2° - - 1012.0
4/25 12:40am 153 4 G 5 57° 87% - - 53° 57.3° 56.2° - - 1013.0
4/25 12:30am 134 5 G 8 57° 87% - - 53° 57.3° 56.2° - - 1013.0
4/25 12:20am 136 6 G 7 57° 87% - - 53° 57.3° 56.3° - - 1012.0
4/25 12:10am 135 6 G 8 57° 87% - - 53° 57.2° 56.3° - - 1012.0
4/25 12:00am 138 6 G 9 57° 87% - - 53° 65.1° 55.5° - - 1013.0
4/24 11:50pm 145 8 G 11 57° 87% - - 53° 65.1° 55.5° - - 1012.0
4/24 11:40pm 151 8 G 11 57° 87% - - 53° 65.1° 55.5° - - 1012.0
4/24 11:30pm 148 7 G 11 57° 87% - - 53° 65.1° 55.5° - - 1012.0
4/24 11:20pm 141 8 G 14 57° 86% - - 53° 65.1° 55.5° - - 1012.0
4/24 11:10pm 147 9 G 13 57° 86% - - 53° 65.1° 55.5° - - 1013.0
4/24 11:00pm 150 5 G 7 57° 86% - - 53° 65.1° 55.5° - - 1013.0
4/24 10:50pm 135 4 G 6 57° 86% - - 53° 65.1° 55.5° - - 1014.0
4/24 10:40pm 139 5 G 7 57° 86% - - 53° 65.1° 55.5° - - 1013.0
4/24 10:30pm 127 4 G 6 57° 86% - - 53° 65.1° 55.5° - - 1013.0
4/24 10:20pm 135 4 G 5 57° 87% - - 53° 65.1° 55.5° - - 1013.0
4/24 10:10pm 140 4 G 6 57° 87% - - 53° 65.1° 55.5° - - 1013.0
4/24 10:00pm 140 4 G 4 57° 87% - - 53° 65.1° 55.5° - - 1013.0
4/24 9:50pm 133 3 G 4 57° 88% - - 53° 65.1° 55.5° - - 1013.0
4/24 9:40pm 134 4 G 6 57° 88% - - 53° 65.1° 55.5° - - 1013.0
4/24 9:30pm 138 5 G 6 57° 88% - - 53° 65.1° 55.5° - - 1013.0
4/24 9:20pm 146 4 G 7 57° 89% - - 54° 65.1° 55.5° - - 1013.0
4/24 9:10pm 148 5 G 7 57° 89% - - 54° 65.1° 55.5° - - 1013.0
4/24 9:00pm 143 6 G 7 57° 89% - - 54° 65.1° 55.5° - - 1013.0
4/24 8:50pm 150 4 G 6 57° 90% - - 54° 65.1° 55.5° - - 1013.0
4/24 8:40pm 149 5 G 7 56° 91% - - 54° 65.1° 55.5° - - 1013.0
4/24 8:30pm 160 4 G 6 56° 91% - - 54° 65.1° 55.5° - - 1013.0
4/24 8:20pm 151 5 G 7 56° 91% - - 54° 65.1° 55.5° - - 1013.0
4/24 8:10pm 153 5 G 7 57° 90% - - 54° 65.1° 55.5° - - 1013.0
4/24 8:00pm 154 5 G 7 57° 90% - - 54° 65.1° 55.5° - - 1013.0
4/24 7:50pm 161 5 G 7 57° 89% - - 54° 65.1° 55.5° - - 1013.0
4/24 7:40pm 162 4 G 7 57° 88% - - 53° 65.1° 55.5° - - 1012.0
4/24 7:30pm 161 4 G 6 57° 86% - - 53° 65.1° 55.5° - - 1012.0
4/24 7:20pm 178 4 G 5 58° 84% - - 53° 65.1° 55.5° - - 1012.0
4/24 7:10pm 198 3 G 6 58° 83% - - 53° 65.1° 55.5° - - 1012.0
4/24 7:00pm 198 3 G 6 59° 82% - - 53° 65.1° 55.5° - - 1012.0
4/24 6:50pm 185 3 G 5 59° 81% - - 53° 65.1° 55.5° - - 1013.0
4/24 6:40pm 198 4 G 6 59° 81% - - 53° 65.1° 55.5° - - 1013.0
4/24 6:30pm 206 4 G 7 60° 80% - - 53° 65.1° 55.5° - - 1013.0
4/24 6:20pm 209 4 G 7 60° 79% - - 53° 65.1° 55.5° - - 1013.0
4/24 6:10pm 227 5 G 8 60° 79% - - 53° 65.1° 55.5° - - 1013.0
4/24 6:00pm 240 4 G 8 60° 81% - - 54° 65.1° 55.5° - - 1013.0